South Pass, Louisiana
Current Conditions -  °F | °C
As of 4:51 PM on Sunday 21 Dec 2014 (Local Time) from KBVE Reporting Station
Haze Haze  
Wind Chill: 57°   Ceiling: Unl
Heat Index: 57°   Visibility: 5mi
Dew Point: 55°   Wind: 5mph
Humidity: 93%   Direction: NA
Pressure: 30"   Gusts: NA
Location:  29.2037°N, 89.3875°W
Report Text: KBVE 212251Z AUTO VRB04KT 5SM BR CLR 14/13 A3000 RMK AO2 SLP157 T01390128
Loading
Personal Weather Stations






























Interactive Weather Map New forecast layout! Learn more

10-Day Weather Forecast

Advertisements
Track Severe Weather on mobile